sensor_id;sensor_type;location;lat;lon;timestamp;P1;durP1;ratioP1;P2;durP2;ratioP2
19776;SDS011;10047;42.490;26.012;2024-03-23T00:55:58;14.95;;;10.40;;
19776;SDS011;10047;42.490;26.012;2024-03-23T00:58:24;15.35;;;10.82;;
19776;SDS011;10047;42.490;26.012;2024-03-23T01:00:49;14.55;;;10.73;;
19776;SDS011;10047;42.490;26.012;2024-03-23T01:03:15;22.83;;;13.30;;
19776;SDS011;10047;42.490;26.012;2024-03-23T01:05:40;18.52;;;11.50;;
19776;SDS011;10047;42.490;26.012;2024-03-23T01:08:06;16.77;;;11.90;;
19776;SDS011;10047;42.490;26.012;2024-03-23T01:10:39;15.80;;;11.63;;
19776;SDS011;10047;42.490;26.012;2024-03-23T01:13:05;17.70;;;11.70;;
19776;SDS011;10047;42.490;26.012;2024-03-23T01:15:30;16.88;;;11.88;;
19776;SDS011;10047;42.490;26.012;2024-03-23T01:17:55;18.55;;;12.35;;
19776;SDS011;10047;42.490;26.012;2024-03-23T01:20:21;17.23;;;11.68;;
19776;SDS011;10047;42.490;26.012;2024-03-23T01:22:46;17.15;;;11.95;;
19776;SDS011;10047;42.490;26.012;2024-03-23T01:25:17;15.40;;;11.55;;
19776;SDS011;10047;42.490;26.012;2024-03-23T01:27:42;17.17;;;12.40;;
19776;SDS011;10047;42.490;26.012;2024-03-23T01:30:07;16.45;;;12.13;;
19776;SDS011;10047;42.490;26.012;2024-03-23T01:32:33;17.25;;;11.77;;
19776;SDS011;10047;42.490;26.012;2024-03-23T01:34:58;14.73;;;10.50;;
19776;SDS011;10047;42.490;26.012;2024-03-23T01:37:24;18.08;;;11.68;;
19776;SDS011;10047;42.490;26.012;2024-03-23T01:39:49;14.60;;;10.02;;
19776;SDS011;10047;42.490;26.012;2024-03-23T01:42:16;15.13;;;10.77;;
19776;SDS011;10047;42.490;26.012;2024-03-23T01:44:41;13.98;;;9.77;;
19776;SDS011;10047;42.490;26.012;2024-03-23T01:47:06;15.32;;;10.93;;
19776;SDS011;10047;42.490;26.012;2024-03-23T01:49:32;12.50;;;9.68;;
19776;SDS011;10047;42.490;26.012;2024-03-23T01:51:58;13.00;;;10.18;;
19776;SDS011;10047;42.490;26.012;2024-03-23T01:54:24;13.82;;;10.30;;
19776;SDS011;10047;42.490;26.012;2024-03-23T01:56:50;18.17;;;10.73;;
19776;SDS011;10047;42.490;26.012;2024-03-23T01:59:15;14.70;;;10.50;;
19776;SDS011;10047;42.490;26.012;2024-03-23T02:01:41;17.27;;;11.43;;
19776;SDS011;10047;42.490;26.012;2024-03-23T02:04:06;17.00;;;11.90;;
19776;SDS011;10047;42.490;26.012;2024-03-23T02:06:36;16.05;;;10.90;;
19776;SDS011;10047;42.490;26.012;2024-03-23T02:09:01;17.10;;;10.82;;
19776;SDS011;10047;42.490;26.012;2024-03-23T02:11:28;16.90;;;11.18;;
19776;SDS011;10047;42.490;26.012;2024-03-23T02:13:54;17.02;;;11.25;;
19776;SDS011;10047;42.490;26.012;2024-03-23T02:16:20;15.02;;;11.05;;
19776;SDS011;10047;42.490;26.012;2024-03-23T02:18:46;17.83;;;11.18;;
19776;SDS011;10047;42.490;26.012;2024-03-23T02:21:11;18.75;;;11.85;;
19776;SDS011;10047;42.490;26.012;2024-03-23T02:23:36;15.35;;;11.30;;
19776;SDS011;10047;42.490;26.012;2024-03-23T02:26:02;14.98;;;10.10;;
19776;SDS011;10047;42.490;26.012;2024-03-23T02:28:27;15.65;;;9.88;;
19776;SDS011;10047;42.490;26.012;2024-03-23T02:30:53;19.35;;;9.68;;
19776;SDS011;10047;42.490;26.012;2024-03-23T02:33:18;12.32;;;8.50;;
19776;SDS011;10047;42.490;26.012;2024-03-23T02:35:44;14.20;;;9.32;;
19776;SDS011;10047;42.490;26.012;2024-03-23T02:38:10;13.88;;;9.38;;
19776;SDS011;10047;42.490;26.012;2024-03-23T02:40:38;14.88;;;10.15;;
19776;SDS011;10047;42.490;26.012;2024-03-23T02:43:04;18.63;;;10.90;;
19776;SDS011;10047;42.490;26.012;2024-03-23T02:45:29;17.35;;;12.50;;
19776;SDS011;10047;42.490;26.012;2024-03-23T02:47:55;17.85;;;12.32;;
19776;SDS011;10047;42.490;26.012;2024-03-23T02:50:21;16.60;;;11.77;;
19776;SDS011;10047;42.490;26.012;2024-03-23T02:52:47;15.32;;;11.70;;
19776;SDS011;10047;42.490;26.012;2024-03-23T02:55:13;16.73;;;11.30;;
19776;SDS011;10047;42.490;26.012;2024-03-23T02:57:39;15.32;;;11.73;;
19776;SDS011;10047;42.490;26.012;2024-03-23T03:00:04;17.92;;;12.02;;
19776;SDS011;10047;42.490;26.012;2024-03-23T03:02:31;29.73;;;13.10;;
19776;SDS011;10047;42.490;26.012;2024-03-23T03:04:56;19.90;;;14.32;;
19776;SDS011;10047;42.490;26.012;2024-03-23T03:09:52;20.95;;;14.18;;
19776;SDS011;10047;42.490;26.012;2024-03-23T03:12:18;22.17;;;13.48;;
19776;SDS011;10047;42.490;26.012;2024-03-23T03:14:43;21.48;;;12.45;;
19776;SDS011;10047;42.490;26.012;2024-03-23T03:17:08;15.27;;;10.40;;
19776;SDS011;10047;42.490;26.012;2024-03-23T03:19:35;15.15;;;10.63;;
19776;SDS011;10047;42.490;26.012;2024-03-23T03:22:00;16.45;;;10.43;;
19776;SDS011;10047;42.490;26.012;2024-03-23T03:24:26;16.63;;;10.98;;
19776;SDS011;10047;42.490;26.012;2024-03-23T03:26:51;15.43;;;10.80;;
19776;SDS011;10047;42.490;26.012;2024-03-23T03:29:17;17.98;;;11.85;;
19776;SDS011;10047;42.490;26.012;2024-03-23T03:31:42;16.23;;;11.13;;
19776;SDS011;10047;42.490;26.012;2024-03-23T03:34:08;17.95;;;12.05;;
19776;SDS011;10047;42.490;26.012;2024-03-23T03:36:34;18.70;;;11.93;;
19776;SDS011;10047;42.490;26.012;2024-03-23T03:38:59;18.08;;;11.98;;
19776;SDS011;10047;42.490;26.012;2024-03-23T03:41:25;16.50;;;11.65;;
19776;SDS011;10047;42.490;26.012;2024-03-23T03:43:50;15.90;;;11.95;;
19776;SDS011;10047;42.490;26.012;2024-03-23T03:46:15;16.58;;;11.73;;
19776;SDS011;10047;42.490;26.012;2024-03-23T03:48:41;18.17;;;12.77;;
19776;SDS011;10047;42.490;26.012;2024-03-23T03:51:06;17.98;;;12.70;;
19776;SDS011;10047;42.490;26.012;2024-03-23T03:53:32;21.73;;;14.15;;
19776;SDS011;10047;42.490;26.012;2024-03-23T03:56:00;20.90;;;14.38;;
19776;SDS011;10047;42.490;26.012;2024-03-23T03:58:27;18.75;;;14.27;;
19776;SDS011;10047;42.490;26.012;2024-03-23T04:01:00;21.20;;;14.25;;
19776;SDS011;10047;42.490;26.012;2024-03-23T04:03:25;19.40;;;13.75;;
19776;SDS011;10047;42.490;26.012;2024-03-23T04:05:53;19.85;;;12.93;;
19776;SDS011;10047;42.490;26.012;2024-03-23T04:08:19;20.60;;;16.48;;
19776;SDS011;10047;42.490;26.012;2024-03-23T04:10:45;18.88;;;13.52;;
19776;SDS011;10047;42.490;26.012;2024-03-23T04:13:11;22.92;;;18.08;;
19776;SDS011;10047;42.490;26.012;2024-03-23T04:15:37;21.88;;;17.67;;
19776;SDS011;10047;42.490;26.012;2024-03-23T04:18:03;17.83;;;13.57;;
19776;SDS011;10047;42.490;26.012;2024-03-23T04:20:29;20.67;;;13.48;;
19776;SDS011;10047;42.490;26.012;2024-03-23T04:22:54;18.73;;;11.57;;
19776;SDS011;10047;42.490;26.012;2024-03-23T04:25:19;16.20;;;11.43;;
19776;SDS011;10047;42.490;26.012;2024-03-23T04:27:45;16.73;;;11.80;;
19776;SDS011;10047;42.490;26.012;2024-03-23T04:30:12;18.63;;;12.00;;
19776;SDS011;10047;42.490;26.012;2024-03-23T04:32:46;16.95;;;11.10;;
19776;SDS011;10047;42.490;26.012;2024-03-23T04:35:12;17.83;;;11.43;;
19776;SDS011;10047;42.490;26.012;2024-03-23T04:37:38;20.02;;;12.38;;
19776;SDS011;10047;42.490;26.012;2024-03-23T04:40:07;20.55;;;12.85;;
19776;SDS011;10047;42.490;26.012;2024-03-23T04:42:38;19.92;;;12.88;;
19776;SDS011;10047;42.490;26.012;2024-03-23T04:45:04;21.30;;;14.23;;
19776;SDS011;10047;42.490;26.012;2024-03-23T04:47:31;24.08;;;14.55;;
19776;SDS011;10047;42.490;26.012;2024-03-23T04:49:56;25.23;;;17.27;;
19776;SDS011;10047;42.490;26.012;2024-03-23T04:52:21;26.35;;;18.10;;
19776;SDS011;10047;42.490;26.012;2024-03-23T04:54:47;33.05;;;21.33;;
19776;SDS011;10047;42.490;26.012;2024-03-23T04:57:12;58.08;;;34.72;;
19776;SDS011;10047;42.490;26.012;2024-03-23T04:59:38;190.15;;;105.63;;
19776;SDS011;10047;42.490;26.012;2024-03-23T05:02:03;130.10;;;71.20;;
19776;SDS011;10047;42.490;26.012;2024-03-23T05:04:29;38.55;;;26.80;;
19776;SDS011;10047;42.490;26.012;2024-03-23T05:06:54;37.45;;;25.60;;
19776;SDS011;10047;42.490;26.012;2024-03-23T05:09:20;36.92;;;24.13;;
19776;SDS011;10047;42.490;26.012;2024-03-23T05:11:46;31.38;;;21.42;;
19776;SDS011;10047;42.490;26.012;2024-03-23T05:14:13;27.77;;;17.40;;
19776;SDS011;10047;42.490;26.012;2024-03-23T05:16:38;29.20;;;17.55;;
19776;SDS011;10047;42.490;26.012;2024-03-23T05:19:04;40.38;;;26.67;;
19776;SDS011;10047;42.490;26.012;2024-03-23T05:21:29;35.53;;;23.77;;
19776;SDS011;10047;42.490;26.012;2024-03-23T05:23:55;30.75;;;18.95;;
19776;SDS011;10047;42.490;26.012;2024-03-23T05:26:21;23.70;;;15.77;;
19776;SDS011;10047;42.490;26.012;2024-03-23T05:28:47;23.73;;;15.90;;
19776;SDS011;10047;42.490;26.012;2024-03-23T05:31:12;22.42;;;15.75;;
19776;SDS011;10047;42.490;26.012;2024-03-23T05:33:50;19.10;;;13.73;;
19776;SDS011;10047;42.490;26.012;2024-03-23T05:36:15;20.42;;;12.77;;
19776;SDS011;10047;42.490;26.012;2024-03-23T05:38:48;18.70;;;12.23;;
19776;SDS011;10047;42.490;26.012;2024-03-23T05:41:15;19.73;;;13.05;;
19776;SDS011;10047;42.490;26.012;2024-03-23T05:43:41;20.13;;;14.13;;
19776;SDS011;10047;42.490;26.012;2024-03-23T05:46:06;20.77;;;13.15;;
19776;SDS011;10047;42.490;26.012;2024-03-23T05:48:32;40.72;;;22.60;;
19776;SDS011;10047;42.490;26.012;2024-03-23T05:50:58;38.53;;;22.83;;
19776;SDS011;10047;42.490;26.012;2024-03-23T05:56:30;29.33;;;19.48;;
19776;SDS011;10047;42.490;26.012;2024-03-23T05:58:55;27.75;;;17.83;;
19776;SDS011;10047;42.490;26.012;2024-03-23T06:01:20;29.10;;;17.83;;
19776;SDS011;10047;42.490;26.012;2024-03-23T06:03:46;33.70;;;20.02;;
19776;SDS011;10047;42.490;26.012;2024-03-23T06:06:11;39.70;;;22.20;;
19776;SDS011;10047;42.490;26.012;2024-03-23T06:08:38;27.45;;;17.23;;
19776;SDS011;10047;42.490;26.012;2024-03-23T06:11:04;33.15;;;20.92;;
19776;SDS011;10047;42.490;26.012;2024-03-23T06:13:33;34.83;;;22.23;;
19776;SDS011;10047;42.490;26.012;2024-03-23T06:15:59;46.17;;;27.33;;
19776;SDS011;10047;42.490;26.012;2024-03-23T06:18:25;38.25;;;26.42;;
19776;SDS011;10047;42.490;26.012;2024-03-23T06:20:50;38.17;;;23.80;;
19776;SDS011;10047;42.490;26.012;2024-03-23T06:23:15;29.00;;;18.60;;
19776;SDS011;10047;42.490;26.012;2024-03-23T06:25:42;17.48;;;12.68;;
19776;SDS011;10047;42.490;26.012;2024-03-23T06:28:08;21.70;;;14.35;;
19776;SDS011;10047;42.490;26.012;2024-03-23T06:30:33;24.33;;;14.38;;
19776;SDS011;10047;42.490;26.012;2024-03-23T06:32:59;20.67;;;12.98;;
19776;SDS011;10047;42.490;26.012;2024-03-23T06:35:24;18.05;;;12.55;;
19776;SDS011;10047;42.490;26.012;2024-03-23T06:37:49;19.95;;;12.00;;
19776;SDS011;10047;42.490;26.012;2024-03-23T06:40:15;27.65;;;18.77;;
19776;SDS011;10047;42.490;26.012;2024-03-23T06:42:40;23.55;;;16.00;;
19776;SDS011;10047;42.490;26.012;2024-03-23T06:45:06;15.23;;;10.32;;
19776;SDS011;10047;42.490;26.012;2024-03-23T06:47:32;13.15;;;9.52;;
19776;SDS011;10047;42.490;26.012;2024-03-23T06:49:58;14.57;;;10.68;;
19776;SDS011;10047;42.490;26.012;2024-03-23T06:52:26;13.98;;;11.07;;
19776;SDS011;10047;42.490;26.012;2024-03-23T06:54:52;26.23;;;18.45;;
19776;SDS011;10047;42.490;26.012;2024-03-23T06:57:18;17.73;;;13.18;;
19776;SDS011;10047;42.490;26.012;2024-03-23T06:59:43;15.80;;;11.50;;
19776;SDS011;10047;42.490;26.012;2024-03-23T07:02:09;14.75;;;11.77;;
19776;SDS011;10047;42.490;26.012;2024-03-23T07:04:35;13.00;;;10.88;;
19776;SDS011;10047;42.490;26.012;2024-03-23T07:07:02;15.38;;;10.90;;
19776;SDS011;10047;42.490;26.012;2024-03-23T07:09:30;17.58;;;11.75;;
19776;SDS011;10047;42.490;26.012;2024-03-23T07:11:56;14.27;;;10.90;;
19776;SDS011;10047;42.490;26.012;2024-03-23T07:14:22;15.65;;;11.15;;
19776;SDS011;10047;42.490;26.012;2024-03-23T07:16:49;15.10;;;11.20;;
19776;SDS011;10047;42.490;26.012;2024-03-23T07:19:15;14.15;;;11.20;;
19776;SDS011;10047;42.490;26.012;2024-03-23T07:21:44;18.10;;;10.27;;
19776;SDS011;10047;42.490;26.012;2024-03-23T07:24:10;16.38;;;10.43;;
19776;SDS011;10047;42.490;26.012;2024-03-23T07:26:37;13.55;;;10.05;;
19776;SDS011;10047;42.490;26.012;2024-03-23T07:29:03;13.43;;;10.00;;
19776;SDS011;10047;42.490;26.012;2024-03-23T07:31:29;14.90;;;12.65;;
19776;SDS011;10047;42.490;26.012;2024-03-23T07:33:55;12.95;;;10.73;;
19776;SDS011;10047;42.490;26.012;2024-03-23T07:36:20;13.65;;;10.88;;
19776;SDS011;10047;42.490;26.012;2024-03-23T07:38:46;11.57;;;9.88;;
19776;SDS011;10047;42.490;26.012;2024-03-23T07:41:15;13.02;;;9.50;;
19776;SDS011;10047;42.490;26.012;2024-03-23T07:43:45;12.80;;;9.75;;
19776;SDS011;10047;42.490;26.012;2024-03-23T07:46:11;16.88;;;10.68;;
19776;SDS011;10047;42.490;26.012;2024-03-23T07:48:37;13.18;;;10.10;;
19776;SDS011;10047;42.490;26.012;2024-03-23T07:51:03;14.25;;;10.60;;
19776;SDS011;10047;42.490;26.012;2024-03-23T07:53:33;12.35;;;10.57;;
19776;SDS011;10047;42.490;26.012;2024-03-23T07:58:27;13.70;;;10.27;;
19776;SDS011;10047;42.490;26.012;2024-03-23T08:00:53;15.80;;;9.98;;
19776;SDS011;10047;42.490;26.012;2024-03-23T08:03:19;15.80;;;9.05;;
19776;SDS011;10047;42.490;26.012;2024-03-23T08:05:45;10.40;;;8.77;;
19776;SDS011;10047;42.490;26.012;2024-03-23T08:08:11;11.35;;;9.27;;
19776;SDS011;10047;42.490;26.012;2024-03-23T08:10:37;11.60;;;9.40;;
19776;SDS011;10047;42.490;26.012;2024-03-23T08:13:11;12.55;;;10.27;;
19776;SDS011;10047;42.490;26.012;2024-03-23T08:15:37;12.27;;;9.52;;
19776;SDS011;10047;42.490;26.012;2024-03-23T08:18:02;13.65;;;10.13;;
19776;SDS011;10047;42.490;26.012;2024-03-23T08:20:28;13.13;;;9.77;;
19776;SDS011;10047;42.490;26.012;2024-03-23T08:22:53;12.43;;;9.55;;
19776;SDS011;10047;42.490;26.012;2024-03-23T08:25:19;12.05;;;9.02;;
19776;SDS011;10047;42.490;26.012;2024-03-23T08:27:44;11.13;;;8.95;;
19776;SDS011;10047;42.490;26.012;2024-03-23T08:30:10;11.32;;;9.25;;
19776;SDS011;10047;42.490;26.012;2024-03-23T08:32:36;13.80;;;9.30;;
19776;SDS011;10047;42.490;26.012;2024-03-23T08:35:01;12.73;;;9.10;;
19776;SDS011;10047;42.490;26.012;2024-03-23T08:37:27;13.98;;;9.90;;
19776;SDS011;10047;42.490;26.012;2024-03-23T08:39:52;15.38;;;11.23;;
19776;SDS011;10047;42.490;26.012;2024-03-23T08:42:18;12.80;;;10.20;;
19776;SDS011;10047;42.490;26.012;2024-03-23T08:44:43;14.02;;;9.15;;
19776;SDS011;10047;42.490;26.012;2024-03-23T08:47:11;11.63;;;9.68;;
19776;SDS011;10047;42.490;26.012;2024-03-23T08:49:37;10.10;;;9.05;;
19776;SDS011;10047;42.490;26.012;2024-03-23T08:52:02;11.23;;;8.63;;
19776;SDS011;10047;42.490;26.012;2024-03-23T08:54:28;9.40;;;7.95;;
19776;SDS011;10047;42.490;26.012;2024-03-23T08:56:54;10.65;;;8.40;;
19776;SDS011;10047;42.490;26.012;2024-03-23T08:59:19;9.45;;;8.45;;
19776;SDS011;10047;42.490;26.012;2024-03-23T09:01:45;9.57;;;8.43;;
19776;SDS011;10047;42.490;26.012;2024-03-23T09:04:10;10.45;;;7.85;;
19776;SDS011;10047;42.490;26.012;2024-03-23T09:06:36;9.73;;;7.95;;
19776;SDS011;10047;42.490;26.012;2024-03-23T09:09:01;12.02;;;8.40;;
19776;SDS011;10047;42.490;26.012;2024-03-23T09:11:28;11.65;;;9.18;;
19776;SDS011;10047;42.490;26.012;2024-03-23T09:13:53;9.40;;;7.97;;
19776;SDS011;10047;42.490;26.012;2024-03-23T09:16:19;11.27;;;8.02;;
19776;SDS011;10047;42.490;26.012;2024-03-23T09:18:44;19.33;;;12.85;;
19776;SDS011;10047;42.490;26.012;2024-03-23T09:21:16;8.93;;;7.40;;
19776;SDS011;10047;42.490;26.012;2024-03-23T09:23:45;9.32;;;8.05;;
19776;SDS011;10047;42.490;26.012;2024-03-23T09:26:11;9.93;;;7.20;;
19776;SDS011;10047;42.490;26.012;2024-03-23T09:28:36;8.50;;;6.90;;
19776;SDS011;10047;42.490;26.012;2024-03-23T09:31:05;7.82;;;6.60;;
19776;SDS011;10047;42.490;26.012;2024-03-23T09:33:32;12.18;;;7.60;;
19776;SDS011;10047;42.490;26.012;2024-03-23T09:35:57;15.20;;;11.93;;
19776;SDS011;10047;42.490;26.012;2024-03-23T09:38:23;10.43;;;8.40;;
19776;SDS011;10047;42.490;26.012;2024-03-23T09:40:58;7.30;;;6.45;;
19776;SDS011;10047;42.490;26.012;2024-03-23T09:43:27;8.13;;;6.20;;
19776;SDS011;10047;42.490;26.012;2024-03-23T09:45:53;8.63;;;6.82;;
19776;SDS011;10047;42.490;26.012;2024-03-23T09:48:18;11.70;;;8.00;;
19776;SDS011;10047;42.490;26.012;2024-03-23T09:50:44;8.82;;;6.40;;
19776;SDS011;10047;42.490;26.012;2024-03-23T09:53:11;8.25;;;6.28;;
19776;SDS011;10047;42.490;26.012;2024-03-23T09:55:38;7.32;;;6.35;;
19776;SDS011;10047;42.490;26.012;2024-03-23T09:58:04;10.13;;;8.60;;
19776;SDS011;10047;42.490;26.012;2024-03-23T10:00:30;11.82;;;8.23;;
19776;SDS011;10047;42.490;26.012;2024-03-23T10:02:59;7.22;;;6.18;;
19776;SDS011;10047;42.490;26.012;2024-03-23T10:05:28;8.75;;;6.28;;
19776;SDS011;10047;42.490;26.012;2024-03-23T10:07:56;7.63;;;6.50;;
19776;SDS011;10047;42.490;26.012;2024-03-23T10:10:21;7.97;;;5.50;;
19776;SDS011;10047;42.490;26.012;2024-03-23T10:12:58;7.80;;;5.72;;
19776;SDS011;10047;42.490;26.012;2024-03-23T10:15:24;8.38;;;6.07;;
19776;SDS011;10047;42.490;26.012;2024-03-23T10:17:50;7.03;;;5.70;;
19776;SDS011;10047;42.490;26.012;2024-03-23T10:20:20;7.22;;;5.32;;
19776;SDS011;10047;42.490;26.012;2024-03-23T10:22:47;6.78;;;5.80;;
19776;SDS011;10047;42.490;26.012;2024-03-23T10:25:13;7.30;;;5.68;;
19776;SDS011;10047;42.490;26.012;2024-03-23T10:27:39;5.93;;;5.05;;
19776;SDS011;10047;42.490;26.012;2024-03-23T10:30:08;7.03;;;5.13;;
19776;SDS011;10047;42.490;26.012;2024-03-23T10:32:35;9.20;;;7.65;;
19776;SDS011;10047;42.490;26.012;2024-03-23T10:35:16;7.65;;;6.03;;
19776;SDS011;10047;42.490;26.012;2024-03-23T10:37:52;7.90;;;5.53;;
19776;SDS011;10047;42.490;26.012;2024-03-23T10:40:18;7.75;;;5.68;;
19776;SDS011;10047;42.490;26.012;2024-03-23T10:42:44;7.05;;;5.40;;
19776;SDS011;10047;42.490;26.012;2024-03-23T10:45:10;8.05;;;6.22;;
19776;SDS011;10047;42.490;26.012;2024-03-23T10:47:36;6.10;;;5.00;;
19776;SDS011;10047;42.490;26.012;2024-03-23T10:50:05;12.48;;;7.85;;
19776;SDS011;10047;42.490;26.012;2024-03-23T10:52:34;10.75;;;7.93;;
19776;SDS011;10047;42.490;26.012;2024-03-23T10:55:01;6.50;;;4.95;;
19776;SDS011;10047;42.490;26.012;2024-03-23T10:57:31;6.15;;;4.57;;
19776;SDS011;10047;42.490;26.012;2024-03-23T11:00:05;4.70;;;4.13;;
19776;SDS011;10047;42.490;26.012;2024-03-23T11:02:31;5.63;;;4.40;;
19776;SDS011;10047;42.490;26.012;2024-03-23T11:04:57;9.05;;;5.35;;
19776;SDS011;10047;42.490;26.012;2024-03-23T11:07:29;7.22;;;4.65;;
19776;SDS011;10047;42.490;26.012;2024-03-23T11:09:56;4.90;;;3.13;;
19776;SDS011;10047;42.490;26.012;2024-03-23T11:15:06;4.75;;;2.97;;
19776;SDS011;10047;42.490;26.012;2024-03-23T11:17:37;7.50;;;4.13;;
19776;SDS011;10047;42.490;26.012;2024-03-23T11:20:04;7.72;;;5.75;;
19776;SDS011;10047;42.490;26.012;2024-03-23T11:22:43;6.25;;;4.50;;
19776;SDS011;10047;42.490;26.012;2024-03-23T11:25:26;6.55;;;3.72;;
19776;SDS011;10047;42.490;26.012;2024-03-23T11:27:53;8.13;;;3.90;;
19776;SDS011;10047;42.490;26.012;2024-03-23T11:30:26;4.00;;;3.17;;
19776;SDS011;10047;42.490;26.012;2024-03-23T11:32:54;5.28;;;4.18;;
19776;SDS011;10047;42.490;26.012;2024-03-23T11:35:31;8.73;;;5.05;;
19776;SDS011;10047;42.490;26.012;2024-03-23T11:38:07;4.22;;;3.33;;
19776;SDS011;10047;42.490;26.012;2024-03-23T11:40:33;10.95;;;7.32;;
19776;SDS011;10047;42.490;26.012;2024-03-23T11:43:00;9.70;;;6.25;;
19776;SDS011;10047;42.490;26.012;2024-03-23T11:45:28;14.75;;;8.50;;
19776;SDS011;10047;42.490;26.012;2024-03-23T11:50:28;21.30;;;12.55;;
19776;SDS011;10047;42.490;26.012;2024-03-23T11:53:05;12.15;;;7.30;;
19776;SDS011;10047;42.490;26.012;2024-03-23T11:55:38;4.45;;;3.30;;
19776;SDS011;10047;42.490;26.012;2024-03-23T11:58:05;6.38;;;4.10;;
19776;SDS011;10047;42.490;26.012;2024-03-23T12:00:30;5.93;;;4.00;;
19776;SDS011;10047;42.490;26.012;2024-03-23T12:03:00;5.85;;;3.13;;
19776;SDS011;10047;42.490;26.012;2024-03-23T12:05:26;6.63;;;5.20;;
19776;SDS011;10047;42.490;26.012;2024-03-23T12:07:52;6.93;;;3.75;;
19776;SDS011;10047;42.490;26.012;2024-03-23T12:10:22;10.20;;;5.85;;
19776;SDS011;10047;42.490;26.012;2024-03-23T12:13:00;4.70;;;3.03;;
19776;SDS011;10047;42.490;26.012;2024-03-23T12:15:26;5.43;;;3.42;;
19776;SDS011;10047;42.490;26.012;2024-03-23T12:17:52;4.65;;;2.70;;
19776;SDS011;10047;42.490;26.012;2024-03-23T12:20:31;4.13;;;2.75;;
19776;SDS011;10047;42.490;26.012;2024-03-23T12:23:06;7.80;;;3.20;;
19776;SDS011;10047;42.490;26.012;2024-03-23T12:25:33;5.57;;;3.95;;
19776;SDS011;10047;42.490;26.012;2024-03-23T12:27:59;8.38;;;5.97;;
19776;SDS011;10047;42.490;26.012;2024-03-23T12:30:25;5.78;;;2.80;;
19776;SDS011;10047;42.490;26.012;2024-03-23T12:32:50;8.65;;;4.03;;
19776;SDS011;10047;42.490;26.012;2024-03-23T12:35:16;4.80;;;2.80;;
19776;SDS011;10047;42.490;26.012;2024-03-23T12:37:41;6.65;;;4.03;;
19776;SDS011;10047;42.490;26.012;2024-03-23T12:40:07;5.80;;;3.35;;
19776;SDS011;10047;42.490;26.012;2024-03-23T12:42:33;5.85;;;3.15;;
19776;SDS011;10047;42.490;26.012;2024-03-23T12:44:58;5.63;;;3.70;;
19776;SDS011;10047;42.490;26.012;2024-03-23T12:47:23;5.68;;;3.97;;
19776;SDS011;10047;42.490;26.012;2024-03-23T12:49:49;7.45;;;4.45;;
19776;SDS011;10047;42.490;26.012;2024-03-23T12:52:14;5.80;;;3.25;;
19776;SDS011;10047;42.490;26.012;2024-03-23T12:54:40;5.18;;;3.58;;
19776;SDS011;10047;42.490;26.012;2024-03-23T12:57:05;5.28;;;3.30;;
19776;SDS011;10047;42.490;26.012;2024-03-23T12:59:31;4.05;;;2.47;;
19776;SDS011;10047;42.490;26.012;2024-03-23T13:01:57;6.93;;;3.22;;
19776;SDS011;10047;42.490;26.012;2024-03-23T13:04:22;7.65;;;2.35;;
19776;SDS011;10047;42.490;26.012;2024-03-23T13:06:48;4.88;;;3.13;;
19776;SDS011;10047;42.490;26.012;2024-03-23T13:09:13;11.88;;;6.85;;
19776;SDS011;10047;42.490;26.012;2024-03-23T13:11:39;5.05;;;2.60;;
19776;SDS011;10047;42.490;26.012;2024-03-23T13:14:04;5.97;;;3.28;;
19776;SDS011;10047;42.490;26.012;2024-03-23T13:16:30;4.55;;;2.70;;
19776;SDS011;10047;42.490;26.012;2024-03-23T13:18:56;4.78;;;2.50;;
19776;SDS011;10047;42.490;26.012;2024-03-23T13:21:21;3.47;;;2.08;;
19776;SDS011;10047;42.490;26.012;2024-03-23T13:23:47;3.20;;;2.20;;
19776;SDS011;10047;42.490;26.012;2024-03-23T13:26:15;6.75;;;3.03;;
19776;SDS011;10047;42.490;26.012;2024-03-23T13:28:40;5.57;;;2.78;;
19776;SDS011;10047;42.490;26.012;2024-03-23T13:31:06;3.60;;;2.20;;
19776;SDS011;10047;42.490;26.012;2024-03-23T13:33:33;3.97;;;2.22;;
19776;SDS011;10047;42.490;26.012;2024-03-23T13:36:00;4.60;;;2.30;;
19776;SDS011;10047;42.490;26.012;2024-03-23T13:38:25;3.95;;;2.50;;
19776;SDS011;10047;42.490;26.012;2024-03-23T13:40:54;4.25;;;2.10;;
19776;SDS011;10047;42.490;26.012;2024-03-23T13:43:21;3.27;;;2.77;;
19776;SDS011;10047;42.490;26.012;2024-03-23T13:45:48;4.28;;;2.33;;
19776;SDS011;10047;42.490;26.012;2024-03-23T13:48:16;4.32;;;2.28;;
19776;SDS011;10047;42.490;26.012;2024-03-23T13:50:43;6.70;;;2.78;;
19776;SDS011;10047;42.490;26.012;2024-03-23T13:53:08;6.13;;;4.60;;
19776;SDS011;10047;42.490;26.012;2024-03-23T13:55:34;12.00;;;5.95;;
19776;SDS011;10047;42.490;26.012;2024-03-23T13:57:59;8.48;;;4.00;;
19776;SDS011;10047;42.490;26.012;2024-03-23T14:00:25;6.40;;;3.13;;
19776;SDS011;10047;42.490;26.012;2024-03-23T14:02:50;7.20;;;3.35;;
19776;SDS011;10047;42.490;26.012;2024-03-23T14:05:16;6.75;;;2.80;;
19776;SDS011;10047;42.490;26.012;2024-03-23T14:07:41;4.03;;;2.85;;
19776;SDS011;10047;42.490;26.012;2024-03-23T14:10:07;9.35;;;3.83;;
19776;SDS011;10047;42.490;26.012;2024-03-23T14:12:32;9.07;;;3.83;;
19776;SDS011;10047;42.490;26.012;2024-03-23T14:14:58;6.00;;;3.03;;
19776;SDS011;10047;42.490;26.012;2024-03-23T14:17:24;21.83;;;13.02;;
19776;SDS011;10047;42.490;26.012;2024-03-23T14:19:51;11.43;;;5.20;;
19776;SDS011;10047;42.490;26.012;2024-03-23T14:22:16;38.47;;;20.73;;
19776;SDS011;10047;42.490;26.012;2024-03-23T14:24:44;9.05;;;5.85;;
19776;SDS011;10047;42.490;26.012;2024-03-23T14:27:10;7.47;;;3.35;;
19776;SDS011;10047;42.490;26.012;2024-03-23T14:29:35;7.15;;;3.97;;
19776;SDS011;10047;42.490;26.012;2024-03-23T14:32:00;7.40;;;5.20;;
19776;SDS011;10047;42.490;26.012;2024-03-23T14:34:26;11.48;;;7.90;;
19776;SDS011;10047;42.490;26.012;2024-03-23T14:36:53;7.05;;;4.63;;
19776;SDS011;10047;42.490;26.012;2024-03-23T14:39:22;6.80;;;5.63;;
19776;SDS011;10047;42.490;26.012;2024-03-23T14:41:49;9.05;;;5.38;;
19776;SDS011;10047;42.490;26.012;2024-03-23T14:44:15;7.72;;;5.82;;
19776;SDS011;10047;42.490;26.012;2024-03-23T14:46:41;5.90;;;4.43;;
19776;SDS011;10047;42.490;26.012;2024-03-23T14:49:06;10.20;;;6.93;;
19776;SDS011;10047;42.490;26.012;2024-03-23T14:51:32;4.22;;;2.50;;
19776;SDS011;10047;42.490;26.012;2024-03-23T14:53:58;5.95;;;3.70;;
19776;SDS011;10047;42.490;26.012;2024-03-23T14:56:24;11.27;;;7.68;;
19776;SDS011;10047;42.490;26.012;2024-03-23T14:58:52;23.52;;;12.75;;
19776;SDS011;10047;42.490;26.012;2024-03-23T15:01:18;3.75;;;2.40;;
19776;SDS011;10047;42.490;26.012;2024-03-23T15:03:44;57.35;;;33.33;;
19776;SDS011;10047;42.490;26.012;2024-03-23T15:06:09;9.00;;;5.22;;
19776;SDS011;10047;42.490;26.012;2024-03-23T15:08:35;2.85;;;2.17;;
19776;SDS011;10047;42.490;26.012;2024-03-23T15:11:05;5.05;;;3.50;;
19776;SDS011;10047;42.490;26.012;2024-03-23T15:13:34;27.05;;;18.70;;
19776;SDS011;10047;42.490;26.012;2024-03-23T15:16:00;6.13;;;2.30;;
19776;SDS011;10047;42.490;26.012;2024-03-23T15:18:33;7.22;;;3.80;;
19776;SDS011;10047;42.490;26.012;2024-03-23T15:21:00;11.73;;;6.63;;
19776;SDS011;10047;42.490;26.012;2024-03-23T15:23:35;8.52;;;5.90;;
19776;SDS011;10047;42.490;26.012;2024-03-23T15:26:01;13.60;;;7.95;;